Egmondgracht — PDWG — position and weather

sailwx.info

Track history (hours):
 
Tides and Currents Weather Stations Pressure Air Temp Water Temp Dewpoint Dewpoint Depression Visibility Wind Speed Wind Dir Waves Ship Positions

Egmondgracht

Last reported at 2014-Jul-29 20:33 UTC. Time now 2014-Jul-29 20:53 UTC.
Position N 51°09' E 001°50'.

Length 136 m; beam 19 m; draft 9 m.

Type: Cargo ship. MMSI: 245716000.

Date/timePositionNaut miles runAvg speedWind from/ knotsBaromVisibWave heightAir tempDewpointWater temp
2014-Jul-29 20:33N 51°09' E 001°50'1010.5
2014-Jul-29 19:33N 51°02' E 001°38'1110.9
2014-Jul-29 18:33N 50°53' E 001°27'1211.7
2014-Jul-29 17:33N 50°42' E 001°21'2812.1
2014-Jul-29 15:17N 50°28' E 000°45'912.4
2014-Jul-29 14:33N 50°25' E 000°31'1312.4
2014-Jul-29 13:32N 50°22' E 000°12'  
2014-Jul-24 16:14N 39°49' W 027°50'811.9
2014-Jul-24 15:33N 39°45' W 027°59'1212.3
2014-Jul-24 14:34N 39°39' W 028°13'1211.7
2014-Jul-24 13:33N 39°32' W 028°25'1212.3
2014-Jul-24 12:33N 39°26' W 028°39'1212.0
2014-Jul-24 11:34N 39°19' W 028°52'1212.1
2014-Jul-24 10:33N 39°13' W 029°05'1212.3
2014-Jul-24 09:34N 39°08' W 029°19'1212.0
2014-Jul-24 08:33N 39°02' W 029°33'1211.8
2014-Jul-24 07:33N 38°56' W 029°46'1211.6
2014-Jul-24 06:34N 38°50' W 029°58'1211.7
2014-Jul-24 05:33N 38°44' W 030°11'1111.4
2014-Jul-24 04:33N 38°38' W 030°24'1211.7
2014-Jul-24 03:33N 38°33' W 030°38'1111.3
2014-Jul-24 02:33N 38°27' W 030°50'1211.8
2014-Jul-24 01:33N 38°21' W 031°03'1211.7
2014-Jul-24 00:33N 38°16' W 031°16'1111.5
2014-Jul-23 23:34N 38°10' W 031°29'3911.6
2014-Jul-23 20:14N 37°55' W 032°14'  
Track history (hours):
 
Tides and Currents Weather Stations Pressure Air Temp Water Temp Dewpoint Dewpoint Depression Visibility Wind Speed Wind Dir Waves Ship Positions

Egmondgracht

Last reported at 2014-Jul-29 20:33 UTC. Time now 2014-Jul-29 20:53 UTC.
Position N 51°09' E 001°50'.

Length 136 m; beam 19 m; draft 9 m.

Type: Cargo ship. MMSI: 245716000.

Date/timePositionNaut miles runAvg speedWind from/ knotsBaromVisibWave heightAir tempDewpointWater temp
2014-Jul-29 20:33N 51°09' E 001°50'1010.5
2014-Jul-29 19:33N 51°02' E 001°38'1110.9
2014-Jul-29 18:33N 50°53' E 001°27'1211.7
2014-Jul-29 17:33N 50°42' E 001°21'2812.1
2014-Jul-29 15:17N 50°28' E 000°45'912.4
2014-Jul-29 14:33N 50°25' E 000°31'1312.4
2014-Jul-29 13:32N 50°22' E 000°12'  
2014-Jul-24 16:14N 39°49' W 027°50'811.9
2014-Jul-24 15:33N 39°45' W 027°59'1212.3
2014-Jul-24 14:34N 39°39' W 028°13'1211.7
2014-Jul-24 13:33N 39°32' W 028°25'1212.3
2014-Jul-24 12:33N 39°26' W 028°39'1212.0
2014-Jul-24 11:34N 39°19' W 028°52'1212.1
2014-Jul-24 10:33N 39°13' W 029°05'1212.3
2014-Jul-24 09:34N 39°08' W 029°19'1212.0
2014-Jul-24 08:33N 39°02' W 029°33'1211.8
2014-Jul-24 07:33N 38°56' W 029°46'1211.6
2014-Jul-24 06:34N 38°50' W 029°58'1211.7
2014-Jul-24 05:33N 38°44' W 030°11'1111.4
2014-Jul-24 04:33N 38°38' W 030°24'1211.7
2014-Jul-24 03:33N 38°33' W 030°38'1111.3
2014-Jul-24 02:33N 38°27' W 030°50'1211.8
2014-Jul-24 01:33N 38°21' W 031°03'1211.7
2014-Jul-24 00:33N 38°16' W 031°16'1111.5
2014-Jul-23 23:34N 38°10' W 031°29'3911.6
2014-Jul-23 20:14N 37°55' W 032°14'  

Dump ship's entire track history